createdAt,value
2017-11-26T00:00:58.146Z,28.2
2017-11-26T00:01:58.208Z,28.2
2017-11-26T00:02:58.220Z,28.2
2017-11-26T00:03:58.284Z,28.2
2017-11-26T00:04:58.283Z,28.2
2017-11-26T00:05:58.309Z,28.2
2017-11-26T00:07:01.518Z,28.2
2017-11-26T00:07:58.613Z,28.2
2017-11-26T00:08:58.432Z,28.2
2017-11-26T00:10:01.338Z,28.2
2017-11-26T00:10:58.539Z,28.2
2017-11-26T00:11:58.821Z,28.3
2017-11-26T00:12:58.896Z,28.2
2017-11-26T00:13:59.032Z,28.2
2017-11-26T00:14:59.021Z,28.2
2017-11-26T00:15:58.808Z,28.2
2017-11-26T00:16:58.925Z,28.2
2017-11-26T00:18:02.195Z,28.2
2017-11-26T00:18:59.248Z,28.2
2017-11-26T00:19:59.360Z,28.2
2017-11-26T00:21:02.278Z,28.2
2017-11-26T00:21:59.158Z,28.2
2017-11-26T00:23:02.178Z,28.2
2017-11-26T00:23:59.499Z,28.2
2017-11-26T00:25:02.201Z,28.2
2017-11-26T00:25:59.665Z,28.2
2017-11-26T00:27:02.298Z,28.2
2017-11-26T00:28:02.661Z,28.2
2017-11-26T00:29:02.420Z,28.2
2017-11-26T00:29:59.623Z,28.2
2017-11-26T00:31:02.903Z,28.2
2017-11-26T00:31:59.799Z,28.2
2017-11-26T00:33:02.700Z,28.1
2017-11-26T00:33:59.909Z,28.2
2017-11-26T00:35:02.830Z,28.2
2017-11-26T00:36:00.022Z,28.2
2017-11-26T00:37:02.965Z,28.2
2017-11-26T00:38:03.019Z,28.2
2017-11-26T00:39:00.440Z,28.2
2017-11-26T00:40:00.252Z,28.2
2017-11-26T00:41:00.596Z,28.1
2017-11-26T00:42:03.536Z,28.2
2017-11-26T00:43:03.227Z,28.2
2017-11-26T00:44:03.284Z,28.2
2017-11-26T00:45:03.331Z,28.1
2017-11-26T00:46:03.726Z,28.1
2017-11-26T00:47:00.866Z,28.1
2017-11-26T00:48:03.777Z,28.2
2017-11-26T00:49:03.839Z,28.2
2017-11-26T00:50:00.720Z,28.2
2017-11-26T00:51:01.024Z,28.2
2017-11-26T00:52:04.128Z,28.2
2017-11-26T00:53:00.866Z,28.2
2017-11-26T00:54:03.801Z,28.2
2017-11-26T00:55:04.160Z,28.1
2017-11-26T00:56:01.235Z,28.2
2017-11-26T00:57:01.372Z,28.2
2017-11-26T00:58:03.963Z,28.2
2017-11-26T00:59:04.334Z,28.2
2017-11-26T01:00:01.163Z,28.2
2017-11-26T01:01:01.487Z,28.2
2017-11-26T01:02:01.513Z,28.2
2017-11-26T01:03:04.541Z,28.2
2017-11-26T01:04:01.691Z,28.2
2017-11-26T01:05:01.459Z,28.2
2017-11-26T01:06:01.483Z,28.2
2017-11-26T01:07:01.532Z,28.2
2017-11-26T01:08:04.479Z,28.2
2017-11-26T01:09:01.907Z,28.2
2017-11-26T01:10:02.016Z,28.2
2017-11-26T01:11:01.808Z,28.2
2017-11-26T01:12:02.172Z,28.2
2017-11-26T01:13:02.242Z,28.2
2017-11-26T01:14:04.907Z,28.2
2017-11-26T01:15:05.487Z,28.1
2017-11-26T01:16:02.743Z,28.2
2017-11-26T01:17:05.441Z,28.2
2017-11-26T01:18:05.128Z,28.2
2017-11-26T01:19:05.185Z,28.2
2017-11-26T01:20:05.534Z,28.2
2017-11-26T01:21:02.734Z,28.2
2017-11-26T01:22:05.366Z,28.2
2017-11-26T01:23:02.491Z,28.1
2017-11-26T01:24:05.425Z,28.1
2017-11-26T01:25:02.532Z,28.2
2017-11-26T01:26:02.599Z,28.2
2017-11-26T01:27:05.824Z,28.2
2017-11-26T01:28:05.876Z,28.1
2017-11-26T01:29:02.703Z,28.1
2017-11-26T01:30:06.017Z,28.1
2017-11-26T01:31:06.106Z,28.1
2017-11-26T01:32:06.196Z,28.1
2017-11-26T01:33:03.248Z,28.1
2017-11-26T01:34:03.314Z,28.1
2017-11-26T01:35:03.068Z,28.1
2017-11-26T01:36:03.382Z,28.1
2017-11-26T01:37:06.313Z,28.2
2017-11-26T01:38:06.369Z,28.2
2017-11-26T01:39:03.505Z,28.1
2017-11-26T01:40:06.508Z,28.2
2017-11-26T01:41:03.351Z,28.2
2017-11-26T01:42:06.639Z,28.1
2017-11-26T01:43:06.381Z,28.1
2017-11-26T01:44:03.835Z,28.1
2017-11-26T01:45:06.839Z,28.1
2017-11-26T01:46:06.472Z,28.1
2017-11-26T01:47:03.887Z,28.1
2017-11-26T01:48:06.897Z,28.1
2017-11-26T01:49:03.772Z,28.1
2017-11-26T01:50:06.735Z,28.1
2017-11-26T01:51:07.143Z,28.1
2017-11-26T01:52:04.101Z,28.1
2017-11-26T01:53:06.783Z,28.1
2017-11-26T01:54:03.933Z,28.1
2017-11-26T01:55:04.309Z,28.1
2017-11-26T01:56:04.093Z,28.1
2017-11-26T01:57:07.051Z,28.1
2017-11-26T01:58:07.136Z,28.1
2017-11-26T01:59:04.584Z,28.1
2017-11-26T02:00:08.001Z,28.1
2017-11-26T02:01:07.303Z,28.1
2017-11-26T02:02:07.377Z,28.1
2017-11-26T02:03:04.524Z,28.1
2017-11-26T02:04:04.839Z,28.1
2017-11-26T02:05:07.400Z,28.1
2017-11-26T02:06:07.824Z,28.1
2017-11-26T02:07:07.573Z,28.1
2017-11-26T02:08:07.640Z,28.1
2017-11-26T02:09:05.088Z,28.1
2017-11-26T02:10:08.128Z,28.1
2017-11-26T02:11:05.255Z,28.1
2017-11-26T02:12:04.997Z,28.1
2017-11-26T02:13:05.068Z,28.1
2017-11-26T02:14:05.138Z,28.1
2017-11-26T02:15:08.093Z,28.1
2017-11-26T02:16:08.945Z,28.1
2017-11-26T02:17:08.679Z,28.1
2017-11-26T02:18:08.651Z,28.1
2017-11-26T02:19:08.745Z,28.1
2017-11-26T02:20:05.907Z,28.1
2017-11-26T02:21:05.672Z,28.1
2017-11-26T02:22:05.763Z,28.1
2017-11-26T02:23:08.398Z,28.1
2017-11-26T02:24:09.320Z,28.1
2017-11-26T02:25:08.606Z,28.1
2017-11-26T02:26:08.921Z,28.1
2017-11-26T02:27:08.998Z,28.1
2017-11-26T02:28:09.090Z,28.1
2017-11-26T02:29:06.176Z,28.1
2017-11-26T02:30:06.292Z,28.1
2017-11-26T02:31:06.284Z,28.1
2017-11-26T02:32:06.063Z,28.1
2017-11-26T02:33:08.968Z,28.1
2017-11-26T02:34:09.021Z,28.1
2017-11-26T02:35:06.577Z,28.1
2017-11-26T02:36:06.629Z,28.1
2017-11-26T02:37:06.625Z,28.1
2017-11-26T02:38:09.668Z,28.1
2017-11-26T02:39:09.404Z,28.1
2017-11-26T02:40:09.748Z,28.1
2017-11-26T02:41:09.785Z,28.1
2017-11-26T02:42:06.686Z,28.1
2017-11-26T02:43:06.718Z,28.1
2017-11-26T02:44:06.749Z,28.1
2017-11-26T02:45:10.051Z,28.1
2017-11-26T02:46:07.326Z,28.1
2017-11-26T02:47:10.174Z,28.1
2017-11-26T02:48:10.268Z,28.1
2017-11-26T02:49:10.805Z,28.1
2017-11-26T02:50:10.351Z,28.1
2017-11-26T02:51:07.166Z,28.1
2017-11-26T02:52:11.039Z,28.1
2017-11-26T02:53:10.504Z,28.1
2017-11-26T02:54:07.280Z,28.1
2017-11-26T02:55:10.528Z,28.1
2017-11-26T02:56:10.212Z,28.1
2017-11-26T02:57:07.318Z,28.1
2017-11-26T02:58:10.264Z,28.1
2017-11-26T02:59:07.726Z,28.1
2017-11-26T03:00:10.424Z,28.1
2017-11-26T03:01:10.789Z,28.1
2017-11-26T03:02:10.907Z,28.1
2017-11-26T03:03:08.007Z,28.1
2017-11-26T03:04:07.811Z,28.1
2017-11-26T03:05:11.040Z,28.1
2017-11-26T03:06:07.921Z,28
2017-11-26T03:07:07.990Z,28
2017-11-26T03:08:10.887Z,28
2017-11-26T03:09:08.067Z,28
2017-11-26T03:10:10.986Z,28
2017-11-26T03:11:08.387Z,28
2017-11-26T03:12:11.047Z,28
2017-11-26T03:13:11.102Z,28.1
2017-11-26T03:14:11.214Z,28.1
2017-11-26T03:15:08.537Z,28.1
2017-11-26T03:16:08.338Z,28.1
2017-11-26T03:17:11.546Z,28.1
2017-11-26T03:18:11.305Z,28.1
2017-11-26T03:19:11.337Z,28.1
2017-11-26T03:20:11.380Z,28.1
2017-11-26T03:21:11.745Z,28.1
2017-11-26T03:22:11.479Z,28
2017-11-26T03:23:11.546Z,28
2017-11-26T03:24:08.918Z,28
2017-11-26T03:25:09.034Z,28
2017-11-26T03:26:08.790Z,28
2017-11-26T03:27:12.007Z,28
2017-11-26T03:28:12.061Z,28
2017-11-26T03:29:11.795Z,28
2017-11-26T03:30:11.896Z,28
2017-11-26T03:31:09.469Z,28
2017-11-26T03:32:09.357Z,28
2017-11-26T03:33:09.435Z,28
2017-11-26T03:34:12.126Z,28
2017-11-26T03:35:12.164Z,28
2017-11-26T03:36:12.554Z,28
2017-11-26T03:37:12.225Z,28
2017-11-26T03:38:12.602Z,28
2017-11-26T03:39:12.655Z,28
2017-11-26T03:40:12.712Z,28
2017-11-26T03:41:09.895Z,28
2017-11-26T03:42:12.793Z,28
2017-11-26T03:43:09.637Z,28
2017-11-26T03:44:12.907Z,28
2017-11-26T03:45:09.736Z,28
2017-11-26T03:46:10.063Z,28
2017-11-26T03:47:12.983Z,28
2017-11-26T03:48:12.983Z,28
2017-11-26T03:49:13.108Z,28
2017-11-26T03:50:13.079Z,28
2017-11-26T03:51:15.558Z,28
2017-11-26T03:52:10.044Z,28
2017-11-26T03:53:13.282Z,28
2017-11-26T03:54:13.309Z,28
2017-11-26T03:55:13.377Z,28
2017-11-26T03:56:10.169Z,28
2017-11-26T03:57:10.469Z,28
2017-11-26T03:58:13.475Z,28
2017-11-26T03:59:13.525Z,28
2017-11-26T04:00:13.268Z,28
2017-11-26T04:01:14.024Z,28
2017-11-26T04:02:13.317Z,28
2017-11-26T04:03:13.377Z,28
2017-11-26T04:04:13.414Z,28
2017-11-26T04:05:13.498Z,28
2017-11-26T04:06:10.679Z,28
2017-11-26T04:07:10.683Z,28
2017-11-26T04:08:13.561Z,28
2017-11-26T04:09:11.071Z,28
2017-11-26T04:10:13.642Z,28
2017-11-26T04:11:13.988Z,28
2017-11-26T04:12:11.129Z,28
2017-11-26T04:13:14.142Z,28
2017-11-26T04:14:11.013Z,28
2017-11-26T04:15:11.068Z,28
2017-11-26T04:16:14.346Z,28
2017-11-26T04:17:11.495Z,28
2017-11-26T04:18:11.578Z,28
2017-11-26T04:19:14.230Z,28
2017-11-26T04:20:14.926Z,28
2017-11-26T04:21:14.367Z,28
2017-11-26T04:22:14.402Z,28
2017-11-26T04:23:11.890Z,28
2017-11-26T04:24:11.905Z,28
2017-11-26T04:25:14.555Z,28
2017-11-26T04:26:14.967Z,28
2017-11-26T04:27:11.712Z,28
2017-11-26T04:28:14.941Z,28
2017-11-26T04:29:14.975Z,28
2017-11-26T04:30:12.074Z,28
2017-11-26T04:31:12.064Z,27.9
2017-11-26T04:32:15.094Z,28
2017-11-26T04:33:11.989Z,28
2017-11-26T04:34:12.294Z,28
2017-11-26T04:35:12.399Z,28
2017-11-26T04:36:12.471Z,27.9
2017-11-26T04:37:14.907Z,28
2017-11-26T04:38:12.192Z,28
2017-11-26T04:39:15.144Z,28
2017-11-26T04:40:15.161Z,28
2017-11-26T04:41:12.656Z,27.9
2017-11-26T04:42:12.666Z,28
2017-11-26T04:43:12.802Z,28
2017-11-26T04:44:15.448Z,28
2017-11-26T04:45:15.847Z,28
2017-11-26T04:46:15.525Z,28
2017-11-26T04:47:15.611Z,28
2017-11-26T04:48:16.004Z,28
2017-11-26T04:49:16.033Z,27.9
2017-11-26T04:50:15.731Z,28
2017-11-26T04:51:16.070Z,28
2017-11-26T04:52:16.180Z,28
2017-11-26T04:53:13.297Z,28
2017-11-26T04:54:13.028Z,28
2017-11-26T04:55:13.063Z,28
2017-11-26T04:56:13.377Z,28
2017-11-26T04:57:15.958Z,28
2017-11-26T04:58:13.415Z,28
2017-11-26T04:59:13.209Z,28
2017-11-26T05:00:16.456Z,28
2017-11-26T05:01:16.182Z,28
2017-11-26T05:02:16.561Z,27.9
2017-11-26T05:03:16.317Z,28
2017-11-26T05:04:13.688Z,28
2017-11-26T05:05:16.387Z,28
2017-11-26T05:06:16.365Z,28
2017-11-26T05:07:16.746Z,27.9
2017-11-26T05:08:16.739Z,28
2017-11-26T05:09:16.470Z,27.9
2017-11-26T05:10:16.541Z,28
2017-11-26T05:11:16.571Z,28
2017-11-26T05:12:16.621Z,28
2017-11-26T05:13:16.673Z,28
2017-11-26T05:14:16.734Z,28
2017-11-26T05:15:13.856Z,28
2017-11-26T05:16:13.909Z,28
2017-11-26T05:17:13.937Z,27.9
2017-11-26T05:18:14.218Z,28
2017-11-26T05:19:16.912Z,27.9
2017-11-26T05:20:16.996Z,28
2017-11-26T05:21:17.317Z,28
2017-11-26T05:22:17.398Z,27.9
2017-11-26T05:23:14.251Z,27.9
2017-11-26T05:24:17.499Z,27.9
2017-11-26T05:25:14.620Z,27.9
2017-11-26T05:26:14.374Z,27.9
2017-11-26T05:27:14.695Z,27.9
2017-11-26T05:28:17.631Z,27.9
2017-11-26T05:29:17.606Z,27.9
2017-11-26T05:30:14.447Z,27.9
2017-11-26T05:31:17.670Z,27.9
2017-11-26T05:32:17.400Z,27.9
2017-11-26T05:33:17.434Z,27.9
2017-11-26T05:34:17.794Z,27.9
2017-11-26T05:35:17.849Z,28
2017-11-26T05:36:14.784Z,28
2017-11-26T05:37:14.804Z,27.9
2017-11-26T05:38:17.733Z,28
2017-11-26T05:39:18.175Z,28
2017-11-26T05:40:18.151Z,28
2017-11-26T05:41:15.278Z,28
2017-11-26T05:42:17.981Z,28
2017-11-26T05:43:15.380Z,28
2017-11-26T05:44:15.695Z,28
2017-11-26T05:45:15.563Z,28
2017-11-26T05:46:18.245Z,28
2017-11-26T05:47:15.404Z,27.9
2017-11-26T05:48:15.434Z,27.9
2017-11-26T05:49:18.393Z,27.9
2017-11-26T05:50:15.823Z,27.9
2017-11-26T05:51:15.576Z,27.9
2017-11-26T05:52:15.585Z,27.9
2017-11-26T05:53:15.873Z,27.9
2017-11-26T05:54:18.897Z,27.9
2017-11-26T05:55:16.065Z,27.9
2017-11-26T05:56:18.993Z,27.9
2017-11-26T05:57:15.798Z,27.9
2017-11-26T05:58:19.019Z,27.9
2017-11-26T05:59:16.155Z,27.9
2017-11-26T06:00:19.205Z,27.9
2017-11-26T06:01:18.959Z,27.9
2017-11-26T06:02:19.279Z,27.9
2017-11-26T06:03:18.978Z,27.9
2017-11-26T06:04:16.153Z,27.9
2017-11-26T06:05:19.369Z,27.9
2017-11-26T06:06:16.239Z,27.9
2017-11-26T06:07:19.454Z,27.9
2017-11-26T06:08:19.503Z,27.9
2017-11-26T06:09:19.213Z,27.9
2017-11-26T06:10:19.290Z,27.9
2017-11-26T06:11:19.730Z,27.9
2017-11-26T06:12:19.757Z,27.9
2017-11-26T06:13:19.848Z,27.9
2017-11-26T06:14:16.659Z,27.9
2017-11-26T06:15:19.562Z,27.9
2017-11-26T06:16:17.054Z,27.9
2017-11-26T06:17:20.093Z,27.9
2017-11-26T06:18:17.129Z,27.9
2017-11-26T06:19:20.093Z,27.9
2017-11-26T06:20:16.961Z,27.9
2017-11-26T06:21:19.879Z,27.9
2017-11-26T06:22:17.046Z,27.9
2017-11-26T06:23:17.388Z,27.9
2017-11-26T06:24:17.393Z,27.9
2017-11-26T06:25:17.196Z,27.9
2017-11-26T06:26:17.211Z,27.9
2017-11-26T06:27:20.136Z,27.9
2017-11-26T06:28:17.582Z,27.9
2017-11-26T06:29:22.945Z,27.9
2017-11-26T06:30:20.347Z,27.9
2017-11-26T06:31:17.789Z,27.9
2017-11-26T06:32:17.496Z,27.9
2017-11-26T06:33:20.459Z,27.9
2017-11-26T06:34:17.611Z,27.9
2017-11-26T06:35:20.482Z,27.9
2017-11-26T06:36:17.924Z,27.9
2017-11-26T06:37:17.995Z,27.9
2017-11-26T06:38:17.727Z,27.9
2017-11-26T06:39:17.732Z,27.9
2017-11-26T06:40:20.647Z,27.9
2017-11-26T06:41:17.751Z,27.9
2017-11-26T06:42:21.100Z,27.9
2017-11-26T06:43:20.749Z,27.9
2017-11-26T06:44:17.904Z,27.9
2017-11-26T06:45:20.813Z,27.8
2017-11-26T06:46:17.971Z,27.9
2017-11-26T06:47:18.288Z,27.9
2017-11-26T06:48:17.994Z,27.9
2017-11-26T06:49:18.109Z,27.9
2017-11-26T06:50:21.373Z,27.9
2017-11-26T06:51:21.452Z,27.8
2017-11-26T06:52:18.541Z,27.9
2017-11-26T06:53:18.363Z,27.8
2017-11-26T06:54:21.589Z,27.9
2017-11-26T06:55:21.333Z,27.9
2017-11-26T06:56:18.750Z,27.9
2017-11-26T06:57:21.800Z,27.9
2017-11-26T06:58:21.771Z,27.9
2017-11-26T06:59:21.502Z,27.9
2017-11-26T07:00:18.647Z,27.9
2017-11-26T07:01:21.977Z,27.9
2017-11-26T07:02:18.800Z,27.9
2017-11-26T07:03:21.995Z,27.9
2017-11-26T07:04:18.837Z,27.8
2017-11-26T07:05:18.933Z,27.9
2017-11-26T07:06:19.234Z,27.9
2017-11-26T07:07:19.342Z,27.9
2017-11-26T07:08:19.062Z,27.9
2017-11-26T07:09:19.370Z,27.9
2017-11-26T07:10:22.073Z,27.9
2017-11-26T07:11:22.121Z,27.9
2017-11-26T07:12:22.225Z,27.9
2017-11-26T07:13:19.680Z,27.9
2017-11-26T07:14:22.636Z,27.8
2017-11-26T07:15:22.742Z,27.9
2017-11-26T07:16:22.439Z,27.9
2017-11-26T07:17:22.541Z,27.9
2017-11-26T07:18:22.622Z,27.9
2017-11-26T07:19:22.896Z,27.8
2017-11-26T07:20:22.946Z,27.9
2017-11-26T07:21:23.039Z,27.9
2017-11-26T07:22:22.842Z,27.9
2017-11-26T07:23:22.800Z,27.9
2017-11-26T07:24:20.271Z,27.9
2017-11-26T07:25:23.294Z,27.9
2017-11-26T07:26:20.466Z,27.9
2017-11-26T07:27:20.242Z,27.9
2017-11-26T07:28:23.166Z,27.9
2017-11-26T07:29:20.598Z,27.9
2017-11-26T07:30:23.682Z,27.9
2017-11-26T07:31:23.687Z,27.9
2017-11-26T07:32:23.390Z,27.9
2017-11-26T07:33:23.786Z,27.9
2017-11-26T07:34:23.437Z,27.9
2017-11-26T07:35:23.869Z,27.9
2017-11-26T07:36:23.499Z,27.9
2017-11-26T07:37:20.654Z,27.9
2017-11-26T07:38:23.884Z,27.9
2017-11-26T07:39:20.743Z,27.9
2017-11-26T07:40:23.713Z,27.9
2017-11-26T07:41:20.890Z,27.9
2017-11-26T07:42:20.977Z,27.9
2017-11-26T07:43:21.310Z,27.9
2017-11-26T07:44:24.026Z,27.9
2017-11-26T07:45:21.461Z,27.9
2017-11-26T07:46:21.604Z,27.9
2017-11-26T07:47:24.575Z,27.9
2017-11-26T07:48:24.600Z,27.9
2017-11-26T07:49:24.324Z,27.9
2017-11-26T07:50:21.806Z,27.9
2017-11-26T07:51:21.490Z,27.9
2017-11-26T07:52:24.829Z,27.9
2017-11-26T07:53:21.628Z,27.9
2017-11-26T07:54:24.846Z,27.9
2017-11-26T07:55:21.985Z,27.9
2017-11-26T07:56:22.064Z,27.9
2017-11-26T07:57:24.668Z,27.9
2017-11-26T07:58:21.895Z,27.9
2017-11-26T07:59:24.811Z,27.9
2017-11-26T08:00:25.242Z,27.9
2017-11-26T08:01:22.051Z,27.9
2017-11-26T08:02:22.402Z,27.9
2017-11-26T08:03:25.082Z,27.9
2017-11-26T08:04:25.407Z,27.9
2017-11-26T08:05:22.495Z,27.9
2017-11-26T08:06:25.555Z,27.9
2017-11-26T08:07:25.511Z,27.9
2017-11-26T08:08:22.384Z,27.9
2017-11-26T08:09:25.261Z,27.9
2017-11-26T08:10:25.613Z,27.9
2017-11-26T08:11:22.736Z,27.9
2017-11-26T08:12:25.437Z,27.9
2017-11-26T08:13:22.590Z,27.9
2017-11-26T08:14:22.951Z,27.9
2017-11-26T08:15:25.902Z,27.9
2017-11-26T08:16:25.666Z,27.9
2017-11-26T08:17:23.139Z,27.9
2017-11-26T08:18:22.927Z,27.9
2017-11-26T08:19:23.278Z,27.9
2017-11-26T08:20:23.285Z,27.9
2017-11-26T08:21:26.239Z,27.8
2017-11-26T08:22:25.989Z,27.9
2017-11-26T08:23:26.068Z,27.9
2017-11-26T08:24:26.124Z,27.9
2017-11-26T08:25:23.582Z,27.9
2017-11-26T08:26:26.191Z,27.9
2017-11-26T08:27:26.582Z,27.9
2017-11-26T08:28:26.258Z,27.9
2017-11-26T08:29:23.770Z,27.9
2017-11-26T08:30:26.710Z,27.9
2017-11-26T08:31:23.799Z,27.9
2017-11-26T08:32:26.797Z,27.9
2017-11-26T08:33:23.831Z,27.9
2017-11-26T08:34:23.648Z,27.9
2017-11-26T08:35:26.604Z,27.9
2017-11-26T08:36:24.072Z,27.9
2017-11-26T08:37:26.716Z,27.9
2017-11-26T08:38:26.772Z,27.9
2017-11-26T08:39:23.920Z,27.9
2017-11-26T08:40:26.891Z,27.9
2017-11-26T08:41:24.372Z,27.9
2017-11-26T08:42:24.278Z,27.9
2017-11-26T08:43:27.049Z,27.9
2017-11-26T08:44:27.159Z,27.9
2017-11-26T08:45:27.532Z,27.9
2017-11-26T08:46:24.433Z,27.9
2017-11-26T08:47:24.466Z,27.9
2017-11-26T08:48:27.711Z,27.9
2017-11-26T08:49:24.582Z,27.9
2017-11-26T08:50:24.619Z,27.9
2017-11-26T08:51:24.924Z,27.9
2017-11-26T08:52:24.631Z,27.9
2017-11-26T08:53:27.565Z,27.9
2017-11-26T08:54:24.938Z,27.9
2017-11-26T08:55:24.747Z,27.9
2017-11-26T08:56:24.773Z,27.9
2017-11-26T08:57:28.020Z,27.9
2017-11-26T08:58:28.061Z,27.9
2017-11-26T08:59:25.222Z,27.9
2017-11-26T09:00:28.202Z,27.9
2017-11-26T09:01:28.265Z,28
2017-11-26T09:02:25.341Z,27.9
2017-11-26T09:03:28.329Z,28
2017-11-26T09:04:25.253Z,28
2017-11-26T09:05:28.200Z,28
2017-11-26T09:06:28.579Z,28
2017-11-26T09:07:28.317Z,28
2017-11-26T09:08:25.749Z,28
2017-11-26T09:09:28.425Z,28
2017-11-26T09:10:25.602Z,28.1
2017-11-26T09:11:25.924Z,28.1
2017-11-26T09:12:28.580Z,28.1
2017-11-26T09:13:28.679Z,28.1
2017-11-26T09:14:26.120Z,28.1
2017-11-26T09:15:26.153Z,28.2
2017-11-26T09:16:25.961Z,28.2
2017-11-26T09:17:26.248Z,28.2
2017-11-26T09:18:26.309Z,28.2
2017-11-26T09:19:26.109Z,28.3
2017-11-26T09:20:28.992Z,28.3
2017-11-26T09:21:26.225Z,28.3
2017-11-26T09:22:26.296Z,28.4
2017-11-26T09:23:26.359Z,28.4
2017-11-26T09:24:29.265Z,28.4
2017-11-26T09:25:26.710Z,28.5
2017-11-26T09:26:29.717Z,28.5
2017-11-26T09:27:26.769Z,28.5
2017-11-26T09:28:26.564Z,28.5
2017-11-26T09:29:28.137Z,28.5
2017-11-26T09:30:26.920Z,28.5
2017-11-26T09:31:27.002Z,28.6
2017-11-26T09:32:29.621Z,28.6
2017-11-26T09:33:29.641Z,28.6
2017-11-26T09:34:30.036Z,28.6
2017-11-26T09:35:27.202Z,28.6
2017-11-26T09:36:29.784Z,28.5
2017-11-26T09:37:27.188Z,28.6
2017-11-26T09:38:30.216Z,28.6
2017-11-26T09:39:27.069Z,28.6
2017-11-26T09:40:29.968Z,28.6
2017-11-26T09:41:30.346Z,28.6
2017-11-26T09:42:30.098Z,28.5
2017-11-26T09:43:30.116Z,28.5
2017-11-26T09:44:30.484Z,28.5
2017-11-26T09:45:30.524Z,28.5
2017-11-26T09:46:30.255Z,28.5
2017-11-26T09:47:30.359Z,28.5
2017-11-26T09:48:27.484Z,28.6
2017-11-26T09:49:27.566Z,28.6
2017-11-26T09:50:30.812Z,28.6
2017-11-26T09:51:27.672Z,28.6
2017-11-26T09:52:27.690Z,28.6
2017-11-26T09:53:30.609Z,28.6
2017-11-26T09:54:27.772Z,28.7
2017-11-26T09:55:30.981Z,28.6
2017-11-26T09:56:28.113Z,28.7
2017-11-26T09:57:31.090Z,28.7
2017-11-26T09:58:31.172Z,28.7
2017-11-26T09:59:30.908Z,28.7
2017-11-26T10:00:30.950Z,28.8
2017-11-26T10:01:28.341Z,28.7
2017-11-26T10:02:28.092Z,28.7
2017-11-26T10:03:30.952Z,28.7
2017-11-26T10:04:28.107Z,28.7
2017-11-26T10:05:28.439Z,28.6
2017-11-26T10:06:28.246Z,28.6
2017-11-26T10:07:28.527Z,28.6
2017-11-26T10:08:28.408Z,28.5
2017-11-26T10:09:31.269Z,28.6
2017-11-26T10:10:31.564Z,28.6
2017-11-26T10:11:28.409Z,28.5
2017-11-26T10:12:31.417Z,28.5
2017-11-26T10:13:28.558Z,28.5
2017-11-26T10:14:28.650Z,28.5
2017-11-26T10:15:31.862Z,28.4
2017-11-26T10:16:29.410Z,28.4
2017-11-26T10:17:29.159Z,28.4
2017-11-26T10:18:28.875Z,28.4
2017-11-26T10:19:32.099Z,28.3
2017-11-26T10:20:31.753Z,28.3
2017-11-26T10:21:32.221Z,28.3
2017-11-26T10:22:32.024Z,28.3
2017-11-26T10:23:32.070Z,28.3
2017-11-26T10:24:32.490Z,28.3
2017-11-26T10:25:32.524Z,28.3
2017-11-26T10:26:29.379Z,28.3
2017-11-26T10:27:29.736Z,28.4
2017-11-26T10:28:29.565Z,28.4
2017-11-26T10:29:32.755Z,28.4
2017-11-26T10:30:29.892Z,28.5
2017-11-26T10:31:32.594Z,28.5
2017-11-26T10:32:32.959Z,28.5
2017-11-26T10:33:29.701Z,28.5
2017-11-26T10:34:30.107Z,28.5
2017-11-26T10:35:29.801Z,28.5
2017-11-26T10:36:29.830Z,28.4
2017-11-26T10:37:29.843Z,28.4
2017-11-26T10:38:33.091Z,28.4
2017-11-26T10:39:32.822Z,28.5
2017-11-26T10:40:32.873Z,28.5
2017-11-26T10:41:29.980Z,28.5
2017-11-26T10:42:30.311Z,28.5
2017-11-26T10:43:33.021Z,28.5
2017-11-26T10:44:30.172Z,28.5
2017-11-26T10:45:30.245Z,28.5
2017-11-26T10:46:30.550Z,28.5
2017-11-26T10:47:33.454Z,28.5
2017-11-26T10:48:33.540Z,28.4
2017-11-26T10:49:33.224Z,28.5
2017-11-26T10:50:33.622Z,28.5
2017-11-26T10:51:30.392Z,28.4
2017-11-26T10:52:33.647Z,28.4
2017-11-26T10:53:30.515Z,28.4
2017-11-26T10:54:30.530Z,28.4
2017-11-26T10:55:33.764Z,28.4
2017-11-26T10:56:33.500Z,28.4
2017-11-26T10:57:33.901Z,28.4
2017-11-26T10:58:30.705Z,28.4
2017-11-26T10:59:30.746Z,28.4
2017-11-26T11:00:31.106Z,28.4
2017-11-26T11:01:33.813Z,28.4
2017-11-26T11:02:34.154Z,28.4
2017-11-26T11:03:31.294Z,28.4
2017-11-26T11:04:34.228Z,28.4
2017-11-26T11:05:31.410Z,28.4
2017-11-26T11:06:31.128Z,28.5
2017-11-26T11:07:34.018Z,28.5
2017-11-26T11:08:31.173Z,28.5
2017-11-26T11:09:31.203Z,28.6
2017-11-26T11:10:34.416Z,28.6
2017-11-26T11:11:34.181Z,28.6
2017-11-26T11:12:34.226Z,28.6
2017-11-26T11:13:31.682Z,28.6
2017-11-26T11:14:31.685Z,28.6
2017-11-26T11:15:31.393Z,28.6
2017-11-26T11:16:34.283Z,28.6
2017-11-26T11:17:31.725Z,28.6
2017-11-26T11:18:31.538Z,28.6
2017-11-26T11:19:34.829Z,28.7
2017-11-26T11:20:31.841Z,28.6
2017-11-26T11:21:34.887Z,28.7
2017-11-26T11:22:31.726Z,28.6
2017-11-26T11:23:34.636Z,28.6
2017-11-26T11:24:31.791Z,28.7
2017-11-26T11:25:34.660Z,28.7
2017-11-26T11:26:35.073Z,28.6
2017-11-26T11:27:34.819Z,28.7
2017-11-26T11:28:35.245Z,28.7
2017-11-26T11:29:32.107Z,28.8
2017-11-26T11:30:35.378Z,28.9
2017-11-26T11:31:32.207Z,29
2017-11-26T11:32:32.514Z,29.1
2017-11-26T11:33:35.522Z,29.1
2017-11-26T11:34:35.205Z,29.2
2017-11-26T11:35:35.272Z,29.2
2017-11-26T11:36:32.715Z,29.2
2017-11-26T11:37:32.532Z,29.1
2017-11-26T11:38:32.848Z,29.2
2017-11-26T11:39:35.784Z,29.2
2017-11-26T11:40:35.515Z,29.2
2017-11-26T11:41:33.008Z,29.2
2017-11-26T11:42:32.772Z,29.3
2017-11-26T11:43:35.995Z,29.3
2017-11-26T11:44:33.125Z,29.2
2017-11-26T11:45:33.171Z,29.1
2017-11-26T11:46:32.913Z,29.1
2017-11-26T11:47:32.954Z,29.2
2017-11-26T11:48:33.275Z,29.2
2017-11-26T11:49:36.179Z,29.2
2017-11-26T11:50:33.096Z,29.2
2017-11-26T11:51:33.082Z,29.1
2017-11-26T11:52:33.218Z,29.2
2017-11-26T11:53:36.445Z,29.2
2017-11-26T11:54:36.122Z,29.2
2017-11-26T11:55:36.187Z,29.2
2017-11-26T11:56:36.258Z,29.1
2017-11-26T11:57:36.285Z,29.1
2017-11-26T11:58:36.664Z,29
2017-11-26T11:59:36.395Z,29
2017-11-26T12:00:33.923Z,28.9
2017-11-26T12:01:33.683Z,28.9
2017-11-26T12:02:33.778Z,28.9
2017-11-26T12:03:36.955Z,28.9
2017-11-26T12:04:34.107Z,28.9
2017-11-26T12:05:37.039Z,28.9
2017-11-26T12:06:37.021Z,28.8
2017-11-26T12:07:33.875Z,28.8
2017-11-26T12:08:34.203Z,28.8
2017-11-26T12:09:36.817Z,28.8
2017-11-26T12:10:37.208Z,28.7
2017-11-26T12:11:34.095Z,28.7
2017-11-26T12:12:36.997Z,28.7
2017-11-26T12:13:37.067Z,28.7
2017-11-26T12:14:34.511Z,28.7
2017-11-26T12:15:37.216Z,28.7
2017-11-26T12:16:37.609Z,28.7
2017-11-26T12:17:34.786Z,28.8
2017-11-26T12:18:37.388Z,28.9
2017-11-26T12:19:37.418Z,28.9
2017-11-26T12:20:34.581Z,29
2017-11-26T12:21:34.617Z,29
2017-11-26T12:22:34.637Z,29.1
2017-11-26T12:23:37.947Z,29.1
2017-11-26T12:24:37.633Z,29.2
2017-11-26T12:25:37.768Z,29.2
2017-11-26T12:26:34.967Z,29.2
2017-11-26T12:27:37.896Z,29.2
2017-11-26T12:28:37.917Z,29.1
2017-11-26T12:29:35.478Z,29
2017-11-26T12:30:35.185Z,29
2017-11-26T12:31:38.187Z,29
2017-11-26T12:32:35.667Z,28.9
2017-11-26T12:33:38.233Z,28.9
2017-11-26T12:34:38.290Z,28.9
2017-11-26T12:35:38.326Z,28.8
2017-11-26T12:36:38.680Z,28.8
2017-11-26T12:37:38.714Z,28.7
2017-11-26T12:38:38.733Z,28.7
2017-11-26T12:39:35.596Z,28.7
2017-11-26T12:40:38.509Z,28.7
2017-11-26T12:41:38.896Z,28.7
2017-11-26T12:42:38.964Z,28.7
2017-11-26T12:43:38.721Z,28.6
2017-11-26T12:44:35.878Z,28.6
2017-11-26T12:45:39.128Z,28.6
2017-11-26T12:46:38.891Z,28.6
2017-11-26T12:47:35.997Z,28.6
2017-11-26T12:48:39.235Z,28.6
2017-11-26T12:49:36.410Z,28.6
2017-11-26T12:50:36.164Z,28.5
2017-11-26T12:51:39.385Z,28.5
2017-11-26T12:52:39.458Z,28.5
2017-11-26T12:53:36.330Z,28.5
2017-11-26T12:54:36.680Z,28.5
2017-11-26T12:55:36.495Z,28.5
2017-11-26T12:56:36.784Z,28.5
2017-11-26T12:57:39.754Z,28.5
2017-11-26T12:58:39.463Z,28.6
2017-11-26T12:59:39.463Z,28.6
2017-11-26T13:00:36.617Z,28.6
2017-11-26T13:01:36.942Z,28.6
2017-11-26T13:02:36.972Z,28.6
2017-11-26T13:03:39.604Z,28.5
2017-11-26T13:04:36.754Z,28.5
2017-11-26T13:05:39.978Z,28.5
2017-11-26T13:06:39.660Z,28.5
2017-11-26T13:07:40.071Z,28.5
2017-11-26T13:08:36.821Z,28.5
2017-11-26T13:09:39.839Z,28.4
2017-11-26T13:10:37.267Z,28.4
2017-11-26T13:11:40.287Z,28.4
2017-11-26T13:12:37.024Z,28.4
2017-11-26T13:13:40.351Z,28.4
2017-11-26T13:14:40.342Z,28.4
2017-11-26T13:15:40.393Z,28.4
2017-11-26T13:16:40.102Z,28.4
2017-11-26T13:17:37.533Z,28.4
2017-11-26T13:18:40.561Z,28.4
2017-11-26T13:19:40.255Z,28.3
2017-11-26T13:20:40.698Z,28.3
2017-11-26T13:21:40.746Z,28.3
2017-11-26T13:22:37.546Z,28.3
2017-11-26T13:23:40.772Z,28.3
2017-11-26T13:24:40.794Z,28.3
2017-11-26T13:25:37.841Z,28.4
2017-11-26T13:26:40.506Z,28.4
2017-11-26T13:27:37.680Z,28.4
2017-11-26T13:28:40.547Z,28.4
2017-11-26T13:29:40.676Z,28.4